Aerodrome Latest Weathers

# Airport/Station Observation Time (Local Time) Wind Visibility (km) Weather Temp. (°C) Dewdrop (°C) Air Pressure (hPa)
Direction (from) Speed (km/h)
1 Maimun Saleh - Sabang 2022-06-27 16:00:00 WIB Barat Daya 25.9 >=10 Berawan 30 23 1008
2 Sultan Iskandar Muda - Banda Aceh 2022-06-27 16:00:00 WIB Timur Laut 9.3 >=10 Guntur dan hujan 27 25 1007
3 Cut Nyak Dien Nagan Raya - Meulaboh, NAD 2022-06-27 16:00:00 WIB Barat Daya 14.8 >=10 Berawan 30 26 1008
4 Malikus Saleh - Lhokseumawe 2022-06-27 16:00:00 WIB Timur Laut 11.1 7.0 Cerah - berawan 29 24 1006
5 Binaka - Gunung Sitoli 2022-06-27 16:00:00 WIB Barat Daya 7.4 5.0 Hujan ringan 27 25 1007
6 Kualanamu International Airport - Deli Serdang 2022-06-27 16:00:00 WIB Timur Laut 18.5 >=10 Berawan 31 26 1005
7 Dr. Ferdinand Lumban Tobing - Pinangsori (Sibolga) 2022-06-27 16:00:00 WIB Barat Laut 9.3 >=10 Berawan 30 26 1006
8 Silangit - Tapanuli Utara 2022-06-27 16:00:00 WIB Timur 3.7 3.0 Guntur dan hujan ringan 18 18 1016
9 Aek Godang - Padang Sidempuan 2022-06-27 16:00:00 WIB Barat 16.7 >=10 Cerah - berawan 30 21 1007
10 Minangkabau International Airport - Padang 2022-06-27 16:00:00 WIB Barat 11.1 >=10 Cerah - berawan 31 24 1007
11 Sultan Syarif Kasim II - Pekanbaru 2022-06-27 16:00:00 WIB Tenang 9.0 Berawan 32 24 1005
12 Depati Parbo - Kerinci 2022-06-27 16:00:00 WIB Barat Laut 9.3 9.0 Berawan 29 19 1011
13 Japura - Rengat 2022-06-27 16:00:00 WIB Barat Daya 11.1 8.0 Cerah - berawan 30 26 1005
14 Fatmawati Sukarno - Bengkulu 2022-06-27 16:00:00 WIB Selatan 9.3 >=10 Cerah - berawan 31 24 1006
15 Raja Haji Abdullah - Tanjung Balai Karimun 2022-06-27 16:00:00 WIB Timur 9.3 9.0 Berawan 31 25 1006
16 Sultan Thaha - Jambi 2022-06-27 16:00:00 WIB Selatan 5.6 >=10 Berawan 33 24 1006
17 Hang Nadim - Batam 2022-06-27 16:00:00 WIB Selatan 13.0 >=10 Berawan 31 24 1008
18 Raja Haji Fisabilillah - Tanjung Pinang 2022-06-27 16:00:00 WIB Selatan 11.1 >=10 Berawan 31 24 1007
19 Dabo - Singkep 2022-06-27 16:00:00 WIB Tenggara 9.3 8.0 Cerah - berawan 32 26 1007
20 Sultan Mahmud Badaruddin II - Palembang 2022-06-27 16:00:00 WIB Barat Daya 7.4 >=10 Cerah - berawan 33 24 1006
21 Radin Inten II - Lampung 2022-06-27 15:00:00 WIB Barat Daya 5.6 >=10 Cerah - berawan 27 26 1007
22 Astra Ksetra - Lampung 2022-06-27 16:00:00 WIB Tenggara 7.4 9.0 Berawan 31 23 1005
23 Depati Amir - Pangkal Pinang 2022-06-27 16:00:00 WIB Utara 3.7 2.0 Hujan ringan 26 24 1007
24 Budiarto - Curug 2022-06-27 16:12:00 WIB Tenggara 7.4 8.0 Hujan 28 25 1008
25 Soekarno Hatta - Jakarta 2022-06-27 16:00:00 WIB Utara 11.1 9.0 Berawan 30 25 1007
26 Atang Sendjaja - Bogor 2022-06-27 14:00:00 WIB Timur Laut 5.6 5.0 Udara kabur 32 24 1007
27 Halim Perdana Kusuma - Jakarta 2022-06-27 16:00:00 WIB Barat 5.6 6.0 Berawan 28 25 1007
28 Husein Sastranegara - Bandung 2022-06-27 16:00:00 WIB Tenggara 3.7 3.0 Guntur dan hujan 23 21 1013
29 Suryadarma - Kalijati, Subang 2022-06-27 15:00:00 WIB Tenggara 18.5 6.0 Berawan 31 24 1007
30 H.A.S. Hanandjoeddin - Tanjung Pandan 2022-06-27 16:00:00 WIB Selatan 7.4 7.0 Hujan ringan 26 25 1008
31 Kertajati 2022-06-27 16:00:00 WIB Utara 14.8 >=10 Berawan 31 25 1007
32 Wiriadinata - Cibeureum, Tasikmalaya 2022-06-27 15:00:00 WIB Tenang 3.0 Hujan ringan 24 23 1011
33 Ranai - Natuna 2022-06-27 16:00:00 WIB Barat 5.6 >=10 Cerah - berawan 29 -34 1006
34 Tunggul Wulung - Cilacap 2022-06-27 16:00:00 WIB Tenggara 20.4 3.5 Berawan 27 24 1008
35 Paloh - Sambas 2022-06-27 16:00:00 WIB Barat Laut 7.4 >=10 Cerah - berawan 31 25 1007
36 Supadio - Pontianak 2022-06-27 16:00:00 WIB Barat 11.1 >=10 Berawan 31 24 1006
37 Rahadi Oesman - Ketapang 2022-06-27 16:00:00 WIB Barat 11.1 >=10 Berawan 29 26 1007
38 Yogyakarta International Airport - Kulonprogo 2022-06-27 16:00:00 WIB Tenggara 29.6 >=10 Berawan 28 22 1008
39 Ahmad Yani - Semarang 2022-06-27 16:00:00 WIB Barat 5.6 7.0 Berawan 29 25 1007
40 Adi Sutjipto - Yogyakarta 2022-06-27 16:00:00 WIB Tenggara 20.4 8.0 Berawan 28 22 1007
41 Adi Soemarmo - Surakarta 2022-06-27 16:00:00 WIB Barat Daya 9.3 8.0 Berawan 30 22 1008
42 Iswahjudi - Madiun 2022-06-27 16:00:00 WIB Selatan 25.9 8.0 Cerah - berawan 29 23 1009
43 Tebelian - Sintang 2022-06-27 16:00:00 WIB Tenang 8.0 Berawan 24 24 1007
44 Iskandar - Pangkalan Bun 2022-06-27 15:30:00 WIB Barat Daya 14.8 >=10 Berawan 31 25 1007
45 Nanga Pinoh 2022-06-27 16:00:00 WIB Barat Daya 13.0 >=10 Berawan 32 25 1006
46 Juanda - Surabaya 2022-06-27 16:00:00 WIB Timur 13.0 >=10 Cerah - berawan 30 26 1006
47 Pangsuma - Putussibau 2022-06-27 16:00:00 WIB Barat Laut 13.0 >=10 Berawan 33 24 1007
48 Haji Asan - Sampit 2022-06-27 16:00:00 WIB Timur 5.6 7.0 Guntur 30 25 1006
49 Noto Hadinegoro - Jember 2022-06-27 15:00:00 WIB Selatan 14.8 8.0 Berawan 30 23 1009
50 Tjilik Riwut - Palangkaraya 2022-06-27 16:00:00 WIB Timur 3.7 >=10 Berawan 31 24 1006
51 Banyuwangi 2022-06-27 16:04:00 WIB Selatan 14.8 >=10 Cerah - berawan 28 24 1009
52 Beringin - Muara Teweh 2022-06-27 16:00:00 WIB Barat Daya 5.6 >=10 Berawan 32 24 1006
53 Sanggu - Buntok 2022-06-27 16:00:00 WIB Selatan 5.6 >=10 Berawan 32 26 1007
54 H. Hasan Aroeboesman - Ende 2022-06-27 16:00:00 WIB Tenang 7.0 Hujan ringan 25 25 1009
55 Syamsudin Noor - Banjarmasin 2022-06-27 17:00:00 WITA Tenggara 7.4 >=10 Berawan 28 24 1006
56 I Gusti Ngurah Rai - Denpasar 2022-06-27 17:00:00 WITA Tenggara 31.5 >=10 Berawan 28 24 1009
57 Yuvai Semaring - Long Bawang 2022-06-27 17:00:00 WITA Barat Laut 16.7 7.0 Berawan 24 19 1013
58 Gusti Sjamsir Alam - Kota Baru 2022-06-27 17:00:00 WITA Selatan 7.4 8.0 Berawan 29 23 1007
59 Bandara Internasional Lombok - Praya 2022-06-27 17:00:00 WITA Tenggara 22.2 8.0 Berawan 28 21 1009
60 Sultan Aji Muhammad Sulaiman - Sepinggan 2022-06-27 17:00:00 WITA Variabel 7.4 >=10 Cerah - berawan 29 26 1006
61 Aji Pangeran Tumenggung Pranoto - Samarinda 2022-06-27 17:00:00 WITA Selatan 11.1 >=10 Berawan 31 24 1005
62 Tanjung Harapan - Tanjung Selor 2022-06-27 17:00:00 WITA Timur Laut 5.6 8.0 Cerah - berawan 31 24 1005
63 Sultan Muhammad Kaharuddin - Sumbawa Besar 2022-06-27 17:00:00 WITA Timur 20.4 >=10 Cerah - berawan 30 21 1007
64 Kalimarau - Tanjung Redeb 2022-06-27 17:00:00 WITA Selatan 5.6 >=10 Berawan 32 25 1006
65 Juwata - Tarakan 2022-06-27 17:00:00 WITA Timur 7.4 >=10 Berawan 31 26 1005
66 Nunukan 2022-06-27 16:00:00 WITA Timur 11.1 8.0 Cerah - berawan 31 24 1005
67 Sultan Muhammad Salahuddin - Bima 2022-06-27 17:00:00 WITA Selatan 22.2 7.0 Cerah - berawan 29 23 1008
68 Tampa Padang - Mamuju 2022-06-27 15:30:00 WITA Barat Laut 9.3 >=10 Berawan 30 25 1006
69 Tambolaka - Sumba Barat 2022-06-27 17:00:00 WITA Timur 9.3 >=10 Berawan 28 21 1008
70 Sultan Hasanuddin - Makassar 2022-06-27 17:00:00 WITA Timur 7.4 >=10 Cerah - berawan 26 25 1007
71 Pongtiku - Tana Toraja 2022-06-27 17:00:00 WITA Timur Laut 3.7 8.0 Guntur ringan 22 21 1008
72 Komodo - Labuan Bajo 2022-06-27 17:00:00 WITA Tenggara 9.3 >=10 Cerah - berawan 29 21 1009
73 Mutiara SIS Al-Jufri - Palu 2022-06-27 17:00:00 WITA Utara 22.2 >=10 Cerah - berawan 30 21 1006
74 Umbu Mehang Kunda - Waingapu 2022-06-27 17:00:00 WITA Tenggara 16.7 >=10 Berawan 29 17 1009
75 Andi Jemma - Masamba 2022-06-27 17:00:00 WITA Barat 5.6 7.0 Hujan ringan 27 24 1008
76 Frans Sales Lega - Ruteng 2022-06-27 17:00:00 WITA Barat Laut 7.4 1.0 Hujan ringan 20 19 1015
77 Kasiguncu - Poso 2022-06-27 17:00:00 WITA Barat 7.4 6.0 Hujan ringan 27 24 1007
78 Sultan Bantilan - Toli Toli 2022-06-27 16:00:00 WITA Barat Laut 7.4 >=10 Berawan 32 25 1005
79 Sangia Nibandera - Kolaka 2022-06-27 17:00:00 WITA Tenggara 5.6 9.0 Berawan 27 24 1008
80 Tardamu - Sabu 2022-06-27 17:00:00 WITA Timur 11.1 >=10 Berawan 28 21 1010
81 Fransiskus Xaverius Seda - Maumere 2022-06-27 17:00:00 WITA Selatan 14.8 >=10 Berawan 26 24 1010
82 Haluoleo - Kendari 2022-06-27 15:30:00 WITA Tenang 5.0 Hujan ringan 25 25 1010
83 Beto Ambari - Bau Bau 2022-06-27 17:00:00 WITA Timur 11.1 >=10 Berawan 24 23 1010
84 Djalaluddin - Gorontalo 2022-06-27 17:00:00 WITA Utara 3.7 >=10 Berawan 26 25 1005
85 Gewayantana - Larantuka 2022-06-27 17:00:00 WITA Selatan 11.1 >=10 Berawan 29 21 1008
86 David Constantijn Saudale - Rote 2022-06-27 17:00:00 WITA Timur 16.7 >=10 Cerah - berawan 27 22 1015
87 El Tari - Kupang 2022-06-27 17:00:00 WITA Timur 20.4 >=10 Berawan 29 21 1010
88 Mali - Alor 2022-06-27 17:00:00 WITA Barat Daya 5.6 5.0 Hujan ringan 26 25 1010
89 Sam Ratulangi - Manado 2022-06-27 17:00:00 WITA Tenggara 7.4 >=10 Berawan 29 24 1007
90 Naha - Tahuna 2022-06-27 17:00:00 WITA Barat Daya 7.4 8.0 Cerah - berawan 29 24 1006
91 Emalamo - Sanana 2022-06-27 18:00:00 WIT Barat Daya 1.9 8.0 Berawan 30 26 1007
92 Namniwel - Namlea 2022-06-27 18:00:00 WIT Tenggara 18.5 >=10 Cerah - berawan 29 25 1006
93 Sultan Babullah - Ternate 2022-06-27 18:00:00 WIT Variabel 3.7 9.0 Guntur 28 25 1007
94 Oesman Sadik - Labuha 2022-06-27 18:00:00 WIT Tenang 9.0 Cerah - berawan 26 24 1007
95 Gamar Malamo - Galela 2022-06-27 18:00:00 WIT Selatan 3.7 >=10 Cerah - berawan 28 26 1007
96 Pitu - Morotai 2022-06-27 18:00:00 WIT Utara 5.6 9.0 Berawan 28 25 1007
97 Amahai 2022-06-27 18:00:00 WIT Timur 5.6 6.0 Hujan ringan 24 23 1009
98 Bandaneira - Banda 2022-06-27 18:00:00 WIT Tenggara 27.8 8.0 Berawan 27 22 1008
99 Domine Eduard Osok - Sorong 2022-06-27 18:00:00 WIT Barat Daya 11.1 1.0 Hujan 24 23 1008
100 Mathilda Batlayeri - Saumlaki 2022-06-27 18:00:00 WIT Timur 22.2 9.0 Berawan 27 22 1008
101 Torea - Fak Fak 2022-06-27 18:00:00 WIT Timur 3.7 9.0 Berawan 26 24 1009
102 Karel Sadsuitubun - Tual 2022-06-27 18:00:00 WIT Timur 7.4 >=10 Berawan 27 24 1007
103 Utarom - Kaimana 2022-06-27 18:00:00 WIT Tenang 7.0 Cerah - berawan 26 23 1007
104 Rendani - Manokwari 2022-06-27 18:00:00 WIT Tenang 9.0 Berawan 28 24 1007
105 Douw Aturure - Nabire 2022-06-27 18:00:00 WIT Tenang 8.0 Hujan tiba-tiba di sekitarnya 26 24 1007
106 Frans Kaisiepo - Biak 2022-06-27 18:00:00 WIT Utara 7.4 8.0 Hujan ringan 25 24 1008
107 Enarotali 2022-06-27 18:00:00 WIT Timur 9.3 8.0 Berawan 19 14 1008
108 Mozes Kilangin - Timika 2022-06-27 18:00:00 WIT Tenang >=10 Cerah - berawan 25 24 1009
109 Mararena / Orai - Sarmi 2022-06-27 18:00:00 WIT Barat Daya 11.1 7.0 Berawan 26 25 1008
110 Wamena 2022-06-27 18:00:00 WIT Timur Laut 3.7 8.0 Hujan tiba-tiba di sekitarnya 19 15 1018
111 Mopah - Merauke 2022-06-27 17:30:00 WIT Timur 9.3 8.0 Berawan 25 24 1009
112 Sentani - Jayapura 2022-06-27 18:00:00 WIT Barat 3.7 9.0 Cerah - berawan 26 22 1007

Satellite Images

Wave Height Forecast

Wind Forecast

Forest Fires